Time;durP1;ratioP1;P1;durP2;ratioP2;P2;SDS_P1;SDS_P2;PMS_P1;PMS_P2;Temp;Humidity;BMP_temperature;BMP_pressure;BME280_temperature;BME280_humidity;BME280_pressure;Samples;Min_cycle;Max_cycle;Signal;HPM_P1;HPM_P2
2022/12/21 00:02:15;;;;;;;39.35;24.60;;;2.60;99.90;;;;;;5087908;28;20207;-89
2022/12/21 00:04:43;;;;;;;42.20;22.23;;;2.60;99.90;;;;;;5081878;28;20220;-90
2022/12/21 00:07:11;;;;;;;67.35;38.60;;;2.40;99.90;;;;;;5068840;28;20211;-90
2022/12/21 00:09:39;;;;;;;47.05;31.05;;;2.40;99.90;;;;;;5087894;28;20208;-92
2022/12/21 00:12:06;;;;;;;39.95;24.35;;;2.50;99.90;;;;;;5072222;28;20224;-89
2022/12/21 00:14:33;;;;;;;38.85;21.92;;;2.40;99.90;;;;;;5085593;28;20204;-89
2022/12/21 00:17:03;;;;;;;34.08;24.17;;;2.40;99.90;;;;;;5063736;28;20184;-90
2022/12/21 00:19:30;;;;;;;34.80;23.80;;;2.90;99.90;;;;;;5087156;28;20204;-90
2022/12/21 00:21:57;;;;;;;43.20;28.15;;;2.70;99.90;;;;;;5094307;28;20401;-90
2022/12/21 00:24:24;;;;;;;45.40;27.42;;;2.50;99.90;;;;;;5059858;28;20205;-90
2022/12/21 00:26:51;;;;;;;38.78;26.10;;;2.20;99.90;;;;;;5071824;28;20523;-90
2022/12/21 00:29:19;;;;;;;41.53;25.00;;;2.70;99.90;;;;;;5076589;28;20204;-90
2022/12/21 00:31:47;;;;;;;35.13;22.55;;;2.20;99.90;;;;;;5089718;28;20196;-90
2022/12/21 00:34:17;;;;;;;34.72;23.17;;;2.30;99.90;;;;;;5078997;28;20207;-89
2022/12/21 00:36:46;;;;;;;36.65;22.10;;;2.20;99.90;;;;;;5073101;28;20388;-90
2022/12/21 00:39:15;;;;;;;32.63;22.38;;;2.10;99.90;;;;;;5053269;28;20258;-90
2022/12/21 00:41:42;;;;;;;37.85;22.05;;;2.10;99.90;;;;;;5092010;28;20219;-89
2022/12/21 00:44:10;;;;;;;39.78;24.17;;;2.10;99.90;;;;;;5090580;28;20208;-90
2022/12/21 00:46:37;;;;;;;36.15;22.02;;;2.00;99.90;;;;;;5054501;28;20278;-89
2022/12/21 00:49:05;;;;;;;34.05;23.20;;;2.00;99.90;;;;;;5067420;28;20208;-88
2022/12/21 00:51:35;;;;;;;30.58;22.25;;;2.30;99.90;;;;;;5085906;28;20600;-89
2022/12/21 00:54:03;;;;;;;31.80;23.40;;;2.00;99.90;;;;;;5065912;28;20227;-89
2022/12/21 00:56:30;;;;;;;37.53;23.17;;;2.00;99.90;;;;;;5070188;28;20222;-88
2022/12/21 00:58:58;;;;;;;33.97;21.17;;;2.00;99.90;;;;;;5082702;28;20195;-89
2022/12/21 01:01:28;;;;;;;38.67;24.20;;;2.10;99.90;;;;;;5065070;28;20249;-90
2022/12/21 01:03:56;;;;;;;40.70;23.48;;;2.60;99.90;;;;;;5083442;28;20199;-90
2022/12/21 01:06:29;;;;;;;34.83;22.25;;;2.10;99.90;;;;;;5093134;28;20226;-91
2022/12/21 01:08:57;;;;;;;51.08;23.40;;;2.20;99.90;;;;;;5067025;28;20204;-90
2022/12/21 01:11:25;;;;;;;39.67;22.88;;;2.60;99.90;;;;;;5074945;28;20203;-91
2022/12/21 01:13:55;;;;;;;37.13;20.95;;;2.20;99.90;;;;;;5068407;28;20224;-89
2022/12/21 01:16:25;;;;;;;32.97;20.85;;;2.40;99.90;;;;;;5075101;28;20207;-91
2022/12/21 01:18:54;;;;;;;43.33;24.08;;;1.90;99.90;;;;;;5080107;28;20213;-88
2022/12/21 01:21:26;;;;;;;33.28;22.42;;;2.10;99.90;;;;;;5072745;28;20196;-90
2022/12/21 01:23:55;;;;;;;42.70;24.40;;;1.90;99.90;;;;;;5071963;28;20192;-90
2022/12/21 01:26:22;;;;;;;43.05;23.67;;;1.90;99.90;;;;;;5090016;28;20218;-89
2022/12/21 01:28:50;;;;;;;42.03;24.45;;;1.90;99.90;;;;;;5054147;28;20203;-89
2022/12/21 01:31:17;;;;;;;36.80;21.42;;;2.10;99.90;;;;;;5056809;28;20218;-88
2022/12/21 01:33:45;;;;;;;31.90;20.27;;;2.00;99.90;;;;;;5086558;28;20230;-88
2022/12/21 01:36:14;;;;;;;44.53;23.55;;;2.00;99.90;;;;;;5090722;28;20269;-88
2022/12/21 01:38:43;;;;;;;38.72;23.05;;;1.90;99.90;;;;;;5089736;28;20566;-88
2022/12/21 01:41:22;;;;;;;34.70;20.27;;;2.00;99.90;;;;;;5090761;28;20204;-88
2022/12/21 01:43:52;;;;;;;38.75;23.98;;;1.90;99.90;;;;;;5062550;28;20248;-89
2022/12/21 01:46:34;;;;;;;35.78;21.23;;;1.90;99.90;;;;;;5088111;28;20211;-88
2022/12/21 01:49:28;;;;;;;36.05;22.00;;;1.90;99.90;;;;;;5086664;28;20209;-88
2022/12/21 01:52:05;;;;;;;32.03;20.13;;;2.00;99.90;;;;;;5100441;28;20188;-89
2022/12/21 01:54:41;;;;;;;35.22;22.20;;;2.00;99.90;;;;;;5095297;28;20210;-89
2022/12/21 01:57:12;;;;;;;36.60;22.45;;;2.20;99.90;;;;;;5071747;28;20196;-89
2022/12/21 01:59:43;;;;;;;38.08;19.90;;;2.30;99.90;;;;;;5081626;28;20221;-90
2022/12/21 02:02:16;;;;;;;34.72;22.42;;;2.30;99.90;;;;;;5093930;28;20198;-90
2022/12/21 02:04:46;;;;;;;34.50;21.40;;;2.30;99.90;;;;;;5080405;28;20199;-92
2022/12/21 02:07:14;;;;;;;42.67;25.50;;;2.50;99.90;;;;;;5088580;28;20310;-90
2022/12/21 02:09:42;;;;;;;41.60;25.77;;;2.30;99.90;;;;;;5067521;28;20219;-90
2022/12/21 02:12:13;;;;;;;41.15;24.13;;;2.70;99.90;;;;;;5081958;28;20202;-91
2022/12/21 02:14:43;;;;;;;30.50;20.63;;;2.40;99.90;;;;;;5074848;28;20209;-90
2022/12/21 02:17:20;;;;;;;38.67;23.23;;;2.60;99.90;;;;;;5074178;28;20234;-91
2022/12/21 02:20:09;;;;;;;34.45;21.98;;;2.70;99.90;;;;;;5094323;28;20496;-89
2022/12/21 02:23:04;;;;;;;31.77;21.58;;;2.80;99.90;;;;;;5067756;28;20529;-91
2022/12/21 02:26:03;;;;;;;35.13;22.38;;;3.10;99.90;;;;;;5071792;28;20213;-92
2022/12/21 02:29:09;;;;;;;34.22;20.42;;;3.20;99.90;;;;;;5074253;28;20209;-91
2022/12/21 02:32:04;;;;;;;32.45;22.40;;;3.00;99.90;;;;;;5101469;28;20199;-89
2022/12/21 02:34:55;;;;;;;30.25;20.63;;;2.80;99.90;;;;;;5084259;28;20216;-90
2022/12/21 02:37:34;;;;;;;36.28;21.48;;;2.80;99.90;;;;;;5092126;28;20204;-89
2022/12/21 02:40:07;;;;;;;32.45;22.23;;;2.90;99.90;;;;;;5062223;28;20200;-91
2022/12/21 02:48:34;;;;;;;34.63;21.30;;;2.70;99.90;;;;;;5999154;22;20188;-90
2022/12/21 02:51:08;;;;;;;33.08;21.35;;;2.70;99.90;;;;;;4995124;28;20309;-90
2022/12/21 02:53:38;;;;;;;33.97;22.35;;;3.00;99.90;;;;;;5012785;28;20266;-89
2022/12/21 02:56:14;;;;;;;28.88;20.13;;;3.20;99.90;;;;;;4993983;28;20265;-89
2022/12/21 02:58:41;;;;;;;31.20;21.05;;;3.20;99.90;;;;;;5007441;28;20207;-89
2022/12/21 03:01:57;;;;;;;36.45;22.15;;;3.10;99.90;;;;;;5004644;28;20562;-88
2022/12/21 03:04:33;;;;;;;29.10;18.77;;;2.80;99.90;;;;;;5013252;28;20234;-89
2022/12/21 03:07:06;;;;;;;27.85;19.98;;;2.90;99.90;;;;;;5009845;28;20203;-89
2022/12/21 03:09:55;;;;;;;33.05;22.17;;;2.70;99.90;;;;;;4998019;28;20408;-88
2022/12/21 03:12:25;;;;;;;33.70;20.60;;;2.60;99.90;;;;;;5006743;28;20266;-88
2022/12/21 03:15:04;;;;;;;33.15;19.75;;;2.50;99.90;;;;;;4988020;28;20227;-87
2022/12/21 03:17:57;;;;;;;28.30;19.50;;;2.60;99.90;;;;;;5017768;28;20193;-88
2022/12/21 03:20:32;;;;;;;31.77;20.30;;;2.70;99.90;;;;;;5011240;28;20225;-87
2022/12/21 03:23:18;;;;;;;39.80;25.67;;;3.00;99.90;;;;;;5011669;28;20215;-88
2022/12/21 03:26:18;;;;;;;61.10;35.65;;;2.80;99.90;;;;;;5003691;28;20770;-89
2022/12/21 03:28:48;;;;;;;39.38;24.83;;;2.80;99.90;;;;;;4994488;28;20218;-86
2022/12/21 03:31:20;;;;;;;32.90;21.05;;;2.70;99.90;;;;;;5012473;28;20231;-88
2022/12/21 03:33:54;;;;;;;45.30;27.48;;;2.70;99.90;;;;;;5011666;28;20234;-89
2022/12/21 03:36:30;;;;;;;42.78;26.40;;;2.80;99.90;;;;;;4991755;28;20257;-87
2022/12/21 03:39:01;;;;;;;39.65;24.65;;;2.80;99.90;;;;;;5003493;28;20336;-88
2022/12/21 03:41:36;;;;;;;35.78;24.00;;;2.80;99.90;;;;;;5015025;28;20495;-90
2022/12/21 03:44:07;;;;;;;32.45;20.85;;;3.50;99.90;;;;;;5005884;28;20227;-90
2022/12/21 03:46:40;;;;;;;31.70;20.30;;;3.00;99.90;;;;;;5018494;28;20202;-91
2022/12/21 03:49:16;;;;;;;33.30;22.40;;;2.80;99.90;;;;;;5003148;28;20219;-90
2022/12/21 03:51:52;;;;;;;38.95;24.35;;;2.80;99.90;;;;;;5003724;28;20577;-91
2022/12/21 03:54:42;;;;;;;31.45;21.27;;;2.90;99.90;;;;;;5019469;28;20231;-90
2022/12/21 03:57:10;;;;;;;36.92;22.60;;;3.10;99.90;;;;;;4988079;28;20212;-90
2022/12/21 03:59:42;;;;;;;26.80;19.23;;;3.30;99.90;;;;;;5003736;28;20211;-90
2022/12/21 04:02:24;;;;;;;26.98;19.25;;;3.30;99.90;;;;;;5016862;28;20220;-89
2022/12/21 04:04:51;;;;;;;32.67;21.45;;;3.20;99.90;;;;;;4993418;28;20199;-88
2022/12/21 04:07:23;;;;;;;27.48;18.30;;;3.50;99.90;;;;;;5020332;28;20216;-88
2022/12/21 04:09:58;;;;;;;30.58;20.48;;;3.50;99.90;;;;;;5011368;28;20193;-90
2022/12/21 04:15:11;;;;;;;41.25;25.65;;;3.40;99.90;;;;;;4989580;28;20286;-89
2022/12/21 04:17:42;;;;;;;33.42;19.45;;;3.40;99.90;;;;;;4987626;28;20207;-89
2022/12/21 04:20:16;;;;;;;39.00;24.55;;;4.00;99.90;;;;;;4973668;28;20197;-87
2022/12/21 04:28:25;;;;;;;28.25;20.45;;;3.30;99.90;;;;;;4996188;28;20737;-89
2022/12/21 04:33:47;;;;;;;36.28;22.83;;;3.80;99.90;;;;;;5493596;23;20254;-89
2022/12/21 04:39:02;;;;;;;30.25;19.60;;;3.60;99.90;;;;;;4965162;29;20241;-87
2022/12/21 04:41:29;;;;;;;29.30;19.40;;;3.20;99.90;;;;;;4963408;29;20221;-87
2022/12/21 04:43:56;;;;;;;36.85;20.67;;;3.10;99.90;;;;;;4962333;29;20750;-87
2022/12/21 04:46:23;;;;;;;30.65;22.00;;;3.00;99.90;;;;;;4963002;29;20406;-87
2022/12/21 04:48:50;;;;;;;36.80;24.73;;;2.90;99.90;;;;;;4960943;28;20253;-90
2022/12/21 04:51:19;;;;;;;33.60;22.95;;;2.90;99.90;;;;;;4955572;29;20213;-88
2022/12/21 04:53:48;;;;;;;51.65;30.63;;;2.90;99.90;;;;;;4966525;28;20244;-90
2022/12/21 04:56:16;;;;;;;37.70;24.30;;;2.90;99.90;;;;;;4967168;28;20494;-87
2022/12/21 04:58:44;;;;;;;45.00;25.17;;;3.40;99.90;;;;;;4967298;29;20281;-88
2022/12/21 05:01:20;;;;;;;40.17;23.52;;;2.90;99.90;;;;;;4947199;29;20250;-88
2022/12/21 05:03:49;;;;;;;35.50;22.58;;;2.80;99.90;;;;;;4968502;28;20205;-86
2022/12/21 05:06:18;;;;;;;35.70;21.60;;;2.90;99.90;;;;;;4979392;28;20183;-89
2022/12/21 05:08:47;;;;;;;35.42;21.98;;;2.80;99.90;;;;;;4978366;28;20301;-90
2022/12/21 05:11:20;;;;;;;45.33;27.67;;;2.90;99.90;;;;;;4978342;28;20197;-89
2022/12/21 05:13:50;;;;;;;36.25;23.52;;;2.80;99.90;;;;;;4979586;28;20212;-89
2022/12/21 05:16:20;;;;;;;38.90;25.35;;;2.90;99.90;;;;;;4962847;29;20210;-88
2022/12/21 05:18:52;;;;;;;37.92;21.98;;;2.90;99.90;;;;;;4967105;29;20198;-88
2022/12/21 05:21:20;;;;;;;41.78;24.58;;;2.90;99.90;;;;;;4951643;29;20437;-89
2022/12/21 05:23:47;;;;;;;35.58;22.73;;;3.20;99.90;;;;;;4965283;29;20262;-89
2022/12/21 05:26:17;;;;;;;36.22;23.25;;;3.00;99.90;;;;;;4964660;29;20529;-88
2022/12/21 05:28:46;;;;;;;36.15;22.00;;;3.00;99.90;;;;;;4966641;28;20223;-89
2022/12/21 05:31:15;;;;;;;32.63;21.80;;;3.00;99.90;;;;;;4976261;28;20505;-90
2022/12/21 05:33:46;;;;;;;36.40;22.58;;;2.80;99.90;;;;;;4966621;28;20300;-87
2022/12/21 05:36:15;;;;;;;34.90;22.55;;;3.30;99.90;;;;;;4965507;29;20224;-87
2022/12/21 05:38:44;;;;;;;36.75;22.88;;;2.70;99.90;;;;;;4953885;29;20239;-87
2022/12/21 05:41:13;;;;;;;33.00;22.38;;;2.70;99.90;;;;;;4970034;29;20189;-85
2022/12/21 05:43:40;;;;;;;31.17;20.42;;;2.70;99.90;;;;;;4969474;29;20212;-86
2022/12/21 05:46:11;;;;;;;30.95;21.35;;;3.00;99.90;;;;;;4966163;29;20600;-87
2022/12/21 05:48:41;;;;;;;31.85;20.30;;;3.10;99.90;;;;;;4969364;29;20249;-86
2022/12/21 05:51:10;;;;;;;35.92;21.50;;;3.10;99.90;;;;;;4970622;29;20307;-88
2022/12/21 05:53:45;;;;;;;33.28;21.95;;;3.40;99.90;;;;;;4972434;28;20251;-86
2022/12/21 05:56:12;;;;;;;31.20;19.90;;;3.30;99.90;;;;;;4955545;29;20210;-87
2022/12/21 05:58:40;;;;;;;26.15;19.63;;;3.10;99.90;;;;;;4963892;29;20433;-87
2022/12/21 06:01:10;;;;;;;34.20;21.63;;;3.10;99.90;;;;;;4962921;29;20213;-88
2022/12/21 06:03:39;;;;;;;27.42;18.75;;;3.00;99.90;;;;;;4962845;28;20201;-87
2022/12/21 06:06:14;;;;;;;27.33;17.98;;;3.10;99.90;;;;;;4962753;28;20442;-87
2022/12/21 06:08:43;;;;;;;29.17;19.88;;;3.10;99.90;;;;;;4962678;29;20209;-87
2022/12/21 06:11:13;;;;;;;28.00;17.70;;;3.40;99.90;;;;;;4948469;29;20276;-86
2022/12/21 06:13:41;;;;;;;31.17;16.30;;;3.20;99.90;;;;;;4946040;29;20234;-90
2022/12/21 06:16:14;;;;;;;33.97;19.95;;;3.30;99.90;;;;;;4951785;29;20280;-90
2022/12/21 06:18:42;;;;;;;33.40;20.20;;;3.30;99.90;;;;;;4962136;29;20382;-90
2022/12/21 06:21:11;;;;;;;28.83;18.95;;;3.50;99.90;;;;;;4967944;28;20217;-88
2022/12/21 06:23:39;;;;;;;29.52;19.33;;;3.60;99.90;;;;;;4962255;29;20265;-88
2022/12/21 06:26:10;;;;;;;26.63;18.15;;;3.80;99.90;;;;;;4964118;29;20368;-88
2022/12/21 06:28:37;;;;;;;32.03;20.85;;;3.70;99.90;;;;;;4968768;29;20205;-88
2022/12/21 06:31:07;;;;;;;29.35;20.67;;;3.90;99.90;;;;;;4969511;29;20218;-89
2022/12/21 06:33:37;;;;;;;31.42;18.40;;;3.90;99.90;;;;;;4974471;29;20367;-87
2022/12/21 06:36:05;;;;;;;25.27;18.50;;;3.90;99.90;;;;;;4970351;29;20206;-87
2022/12/21 06:38:33;;;;;;;32.47;21.48;;;3.80;99.90;;;;;;4974365;28;20218;-89
2022/12/21 06:41:06;;;;;;;34.63;21.58;;;3.90;99.90;;;;;;4972068;28;20229;-88
2022/12/21 06:43:36;;;;;;;27.80;19.30;;;4.00;99.90;;;;;;4954812;28;20190;-88
2022/12/21 06:46:06;;;;;;;29.65;18.10;;;4.20;99.90;;;;;;4963955;28;20198;-88
2022/12/21 06:48:34;;;;;;;37.45;20.25;;;4.20;99.90;;;;;;4952811;29;20213;-87
2022/12/21 06:51:06;;;;;;;26.98;16.75;;;4.30;99.90;;;;;;4956975;29;20194;-89
2022/12/21 06:53:36;;;;;;;29.23;20.27;;;4.30;99.90;;;;;;4955540;29;20226;-86
2022/12/21 06:56:09;;;;;;;28.85;18.90;;;4.20;99.90;;;;;;4966200;29;20222;-90
2022/12/21 06:58:45;;;;;;;27.92;18.60;;;4.10;99.90;;;;;;4956989;29;20193;-90
2022/12/21 07:01:17;;;;;;;28.73;20.35;;;4.30;99.90;;;;;;4972703;29;20201;-89
2022/12/21 07:03:46;;;;;;;32.25;21.05;;;4.10;99.90;;;;;;4974371;28;20205;-87
2022/12/21 07:06:14;;;;;;;40.95;28.77;;;4.20;99.90;;;;;;4963093;29;20659;-88
2022/12/21 07:08:45;;;;;;;31.17;22.33;;;4.20;99.90;;;;;;4953111;28;20655;-87
2022/12/21 07:11:16;;;;;;;31.42;22.75;;;4.30;99.90;;;;;;4953954;29;20217;-88
2022/12/21 07:13:44;;;;;;;30.33;20.40;;;4.10;99.90;;;;;;4970352;29;20497;-89
2022/12/21 07:16:13;;;;;;;34.95;21.20;;;4.00;99.90;;;;;;4971065;28;20234;-88
2022/12/21 07:18:40;;;;;;;31.58;21.10;;;3.90;99.90;;;;;;4968245;29;20218;-89
2022/12/21 07:21:11;;;;;;;36.50;20.02;;;4.00;99.90;;;;;;4966010;29;20214;-87
2022/12/21 07:23:40;;;;;;;29.90;20.60;;;4.00;99.90;;;;;;4964582;28;20214;-87
2022/12/21 07:26:22;;;;;;;27.02;21.33;;;4.10;99.90;;;;;;4951130;28;20208;-88
2022/12/21 07:28:50;;;;;;;34.83;20.58;;;4.10;99.90;;;;;;4967706;29;20198;-87
2022/12/21 07:31:21;;;;;;;26.08;17.90;;;4.30;99.90;;;;;;4977842;28;20213;-87
2022/12/21 07:33:52;;;;;;;28.58;18.30;;;4.50;99.90;;;;;;4963321;29;20224;-88
2022/12/21 07:36:21;;;;;;;28.67;19.33;;;5.00;99.90;;;;;;4964460;28;20246;-88
2022/12/21 07:38:49;;;;;;;30.85;19.95;;;4.70;99.90;;;;;;4960109;29;20228;-89
2022/12/21 07:41:16;;;;;;;33.60;21.63;;;4.60;99.90;;;;;;4962310;28;20249;-88
2022/12/21 07:43:44;;;;;;;23.80;19.23;;;4.60;99.90;;;;;;4961371;28;20230;-89
2022/12/21 07:46:12;;;;;;;54.80;31.52;;;5.00;99.90;;;;;;4956674;28;20264;-88
2022/12/21 07:48:39;;;;;;;34.92;22.17;;;5.10;99.90;;;;;;4965416;28;20674;-87
2022/12/21 07:51:06;;;;;;;39.10;23.00;;;5.40;99.90;;;;;;4963281;28;20206;-88
2022/12/21 07:53:34;;;;;;;44.00;23.65;;;5.40;99.90;;;;;;4963794;28;20282;-88
2022/12/21 07:56:30;;;;;;;36.92;23.88;;;5.50;99.90;;;;;;4961303;28;20795;-89
2022/12/21 07:59:05;;;;;;;43.80;23.98;;;5.80;99.90;;;;;;4963127;28;20210;-89
2022/12/21 08:01:33;;;;;;;59.47;27.85;;;5.80;99.90;;;;;;4962586;29;20229;-89
2022/12/21 08:04:01;;;;;;;54.40;30.58;;;5.50;99.90;;;;;;4952889;29;20258;-89
2022/12/21 08:06:33;;;;;;;72.32;31.35;;;5.50;99.90;;;;;;4965443;28;20204;-89
2022/12/21 08:09:12;;;;;;;51.40;29.15;;;5.80;99.90;;;;;;4963476;29;20215;-90
2022/12/21 08:11:39;;;;;;;43.15;25.27;;;5.70;99.90;;;;;;4964708;29;20222;-88
2022/12/21 08:14:16;;;;;;;33.53;21.48;;;5.90;99.90;;;;;;4963790;28;20214;-88
2022/12/21 08:16:43;;;;;;;42.03;23.60;;;5.70;99.90;;;;;;4963754;28;20222;-89
2022/12/21 08:19:13;;;;;;;36.80;21.40;;;5.70;99.90;;;;;;4966978;28;20214;-89
2022/12/21 08:21:42;;;;;;;39.28;22.17;;;6.00;99.90;;;;;;4964931;28;20210;-88
2022/12/21 08:24:12;;;;;;;62.40;30.55;;;6.00;99.90;;;;;;4967164;28;20207;-89
2022/12/21 08:26:39;;;;;;;53.45;26.20;;;5.90;99.90;;;;;;4963795;29;20218;-89
2022/12/21 08:29:13;;;;;;;33.25;20.90;;;5.80;99.90;;;;;;4933529;28;20251;-90
2022/12/21 08:31:42;;;;;;;49.35;26.10;;;5.80;99.90;;;;;;4966910;28;20211;-90
2022/12/21 08:34:16;;;;;;;72.35;31.73;;;5.60;99.90;;;;;;4961857;29;20210;-89
2022/12/21 08:36:43;;;;;;;36.20;23.67;;;5.50;99.90;;;;;;4946971;29;20630;-89
2022/12/21 08:39:10;;;;;;;38.63;22.10;;;5.70;99.90;;;;;;4948689;29;20222;-88
2022/12/21 08:41:38;;;;;;;38.80;19.50;;;5.80;99.90;;;;;;4961193;28;20564;-88
2022/12/21 08:44:07;;;;;;;45.78;26.25;;;5.60;99.90;;;;;;4974144;28;20611;-90
2022/12/21 08:46:35;;;;;;;44.97;22.90;;;5.50;99.90;;;;;;4960548;29;20203;-88
2022/12/21 08:49:03;;;;;;;30.80;21.33;;;5.50;99.90;;;;;;4967137;29;20195;-90
2022/12/21 08:51:30;;;;;;;42.20;22.13;;;5.70;99.90;;;;;;4964887;28;20218;-89
2022/12/21 08:53:57;;;;;;;38.10;21.17;;;6.40;99.90;;;;;;4968332;28;20522;-90
2022/12/21 08:56:24;;;;;;;34.13;22.10;;;5.60;99.90;;;;;;4965106;28;20225;-89
2022/12/21 08:59:06;;;;;;;217.90;76.50;;;5.50;99.90;;;;;;4966915;29;20209;-89
2022/12/21 09:01:34;;;;;;;28.90;20.63;;;5.60;99.90;;;;;;4966297;28;20246;-88
2022/12/21 09:04:02;;;;;;;36.92;20.83;;;5.80;99.90;;;;;;4973667;28;20195;-88
2022/12/21 09:06:30;;;;;;;30.10;19.67;;;5.80;99.90;;;;;;4983380;28;20432;-89
2022/12/21 09:08:58;;;;;;;33.83;20.20;;;5.60;99.90;;;;;;4976508;28;20312;-88
2022/12/21 09:11:27;;;;;;;53.83;28.17;;;5.60;99.90;;;;;;4957507;29;20250;-89
2022/12/21 09:14:09;;;;;;;56.95;29.30;;;5.90;99.90;;;;;;4959787;29;20218;-89
2022/12/21 09:16:37;;;;;;;40.15;19.60;;;5.90;99.90;;;;;;4962768;28;20262;-88
2022/12/21 09:19:05;;;;;;;29.42;19.17;;;6.20;99.90;;;;;;4960502;28;20214;-88
2022/12/21 09:21:34;;;;;;;31.88;20.23;;;6.20;99.90;;;;;;4962041;29;20241;-89
2022/12/21 09:24:02;;;;;;;27.80;19.45;;;6.40;99.90;;;;;;4962771;28;20223;-90
2022/12/21 09:26:28;;;;;;;50.13;24.35;;;6.20;99.90;;;;;;4966040;28;20237;-88
2022/12/21 09:29:00;;;;;;;106.07;45.38;;;6.60;99.90;;;;;;4961999;28;20218;-87
2022/12/21 09:31:29;;;;;;;88.28;36.92;;;6.00;99.90;;;;;;4949548;28;20235;-88
2022/12/21 09:34:00;;;;;;;70.47;34.58;;;6.30;99.90;;;;;;4962865;28;20206;-88
2022/12/21 09:36:27;;;;;;;39.90;23.50;;;5.50;99.90;;;;;;4953750;29;20231;-88
2022/12/21 09:38:55;;;;;;;104.25;44.80;;;5.70;99.90;;;;;;4963859;28;20379;-88
2022/12/21 09:41:23;;;;;;;36.25;20.70;;;5.80;99.90;;;;;;4964709;28;20214;-88
2022/12/21 09:44:19;;;;;;;46.38;25.40;;;6.00;99.90;;;;;;4969358;28;20204;-87
2022/12/21 09:46:51;;;;;;;28.52;18.33;;;6.40;99.90;;;;;;4965415;29;20199;-87
2022/12/21 09:49:22;;;;;;;32.60;20.50;;;6.80;99.90;;;;;;4964882;28;20626;-87
2022/12/21 09:51:55;;;;;;;38.88;20.02;;;7.10;99.90;;;;;;4959199;29;20221;-88
2022/12/21 09:54:32;;;;;;;34.53;21.20;;;6.70;99.90;;;;;;4960451;28;20199;-87
2022/12/21 09:56:59;;;;;;;33.90;20.42;;;6.80;99.90;;;;;;4963986;28;20213;-88
2022/12/21 09:59:29;;;;;;;31.88;20.23;;;7.00;99.90;;;;;;4969417;29;20214;-88
2022/12/21 10:02:23;;;;;;;73.68;38.08;;;7.00;99.90;;;;;;4975707;28;20195;-87
2022/12/21 10:05:18;;;;;;;35.88;22.92;;;6.90;99.90;;;;;;4980244;28;20202;-88
2022/12/21 10:07:44;;;;;;;44.35;25.98;;;7.10;99.90;;;;;;4971584;28;20246;-87
2022/12/21 10:10:20;;;;;;;30.10;20.40;;;6.90;99.90;;;;;;4968819;29;20207;-88
2022/12/21 10:12:50;;;;;;;32.85;20.42;;;6.90;99.90;;;;;;4951338;29;20206;-87
2022/12/21 10:15:38;;;;;;;28.30;19.02;;;7.10;99.90;;;;;;4964982;28;20238;-89
2022/12/21 10:18:23;;;;;;;53.17;28.25;;;6.80;99.90;;;;;;4942930;29;20395;-89
2022/12/21 10:20:56;;;;;;;49.58;30.35;;;6.60;99.90;;;;;;4965074;28;20278;-90
2022/12/21 10:23:27;;;;;;;48.67;28.48;;;6.40;99.90;;;;;;4965739;29;20210;-90
2022/12/21 10:26:03;;;;;;;40.72;24.50;;;6.60;99.90;;;;;;4964545;28;20207;-88
2022/12/21 10:28:46;;;;;;;33.88;22.08;;;6.70;99.90;;;;;;4970068;28;20198;-88
2022/12/21 10:31:25;;;;;;;38.60;23.25;;;6.40;99.90;;;;;;4956477;29;20219;-89
2022/12/21 10:33:55;;;;;;;42.80;24.65;;;6.80;99.90;;;;;;4948987;29;20218;-88
2022/12/21 10:36:32;;;;;;;31.85;22.52;;;7.00;99.90;;;;;;4951823;29;20243;-88
2022/12/21 10:39:00;;;;;;;36.17;24.48;;;7.30;99.90;;;;;;4971673;28;20198;-89
2022/12/21 10:41:33;;;;;;;36.03;23.27;;;7.40;99.90;;;;;;4970767;28;20215;-88
2022/12/21 10:44:02;;;;;;;36.53;22.90;;;7.40;99.90;;;;;;4960207;29;20257;-89
2022/12/21 10:46:32;;;;;;;42.25;27.00;;;7.10;99.90;;;;;;4965563;29;20207;-88
2022/12/21 10:49:10;;;;;;;48.00;30.27;;;7.50;99.90;;;;;;4976110;28;20194;-90
2022/12/21 10:51:38;;;;;;;36.67;25.02;;;7.30;99.90;;;;;;4964670;28;20214;-89
2022/12/21 10:54:08;;;;;;;33.58;21.95;;;7.10;99.90;;;;;;4979119;28;20207;-89
2022/12/21 10:56:48;;;;;;;41.38;26.05;;;6.90;99.90;;;;;;4958687;29;20230;-87
2022/12/21 10:59:22;;;;;;;37.70;24.08;;;7.10;99.90;;;;;;4954862;29;20206;-88
2022/12/21 11:01:52;;;;;;;36.67;23.25;;;7.20;99.90;;;;;;4944430;29;20394;-89
2022/12/21 11:04:23;;;;;;;41.42;26.13;;;7.30;99.90;;;;;;4966397;29;20232;-89
2022/12/21 11:07:03;;;;;;;33.17;22.02;;;6.90;99.90;;;;;;4953886;29;20207;-90
2022/12/21 11:09:59;;;;;;;28.05;19.60;;;6.80;99.90;;;;;;4953688;29;20250;-88
2022/12/21 11:12:51;;;;;;;29.30;20.85;;;7.10;99.90;;;;;;4968173;29;20195;-90
2022/12/21 11:15:21;;;;;;;31.27;21.45;;;7.30;99.90;;;;;;4953708;29;20250;-89
2022/12/21 11:18:40;;;;;;;27.80;19.67;;;7.30;99.90;;;;;;4965511;29;20199;-91
2022/12/21 11:21:21;;;;;;;69.43;33.15;;;7.40;99.90;;;;;;4975784;28;20266;-89
2022/12/21 11:24:00;;;;;;;30.73;20.05;;;7.10;99.90;;;;;;4967894;28;20206;-88
2022/12/21 11:26:32;;;;;;;37.33;22.65;;;6.60;99.90;;;;;;4973435;28;20205;-89
2022/12/21 11:29:05;;;;;;;37.65;22.45;;;6.30;99.90;;;;;;4965702;28;20273;-87
2022/12/21 11:31:34;;;;;;;33.75;23.20;;;5.80;99.90;;;;;;4965406;29;20277;-89
2022/12/21 11:34:19;;;;;;;36.63;22.85;;;5.80;99.90;;;;;;4953498;29;20303;-88
2022/12/21 11:37:00;;;;;;;34.78;23.65;;;5.60;99.90;;;;;;4974768;28;20250;-89
2022/12/21 11:39:41;;;;;;;38.70;24.77;;;5.40;99.90;;;;;;4976915;28;20215;-89
2022/12/21 11:42:16;;;;;;;47.13;29.20;;;5.30;99.90;;;;;;4970186;29;20225;-90
2022/12/21 11:44:44;;;;;;;49.15;28.20;;;5.70;99.90;;;;;;4975153;28;20237;-89
2022/12/21 11:47:20;;;;;;;28.55;22.10;;;5.90;99.90;;;;;;4973951;28;20262;-89
2022/12/21 11:50:20;;;;;;;32.63;22.45;;;5.60;99.90;;;;;;4965044;29;20229;-87
2022/12/21 11:53:05;;;;;;;37.35;24.23;;;5.50;99.90;;;;;;4959082;28;20205;-87
2022/12/21 11:55:55;;;;;;;48.28;25.30;;;5.40;99.90;;;;;;4955946;29;20222;-88
2022/12/21 11:58:47;;;;;;;51.65;29.55;;;5.50;99.90;;;;;;4952705;29;20319;-88
2022/12/21 12:01:49;;;;;;;53.88;31.38;;;5.60;99.90;;;;;;4945789;29;20557;-89
2022/12/21 12:05:08;;;;;;;54.95;32.60;;;5.50;99.90;;;;;;4971231;28;20588;-89
2022/12/21 12:08:09;;;;;;;48.05;30.08;;;5.60;99.90;;;;;;4970965;28;20205;-88
2022/12/21 12:10:44;;;;;;;56.88;34.10;;;5.80;99.90;;;;;;4964424;28;20210;-88
2022/12/21 12:13:44;;;;;;;39.47;27.35;;;5.70;99.90;;;;;;4970651;28;20215;-87
2022/12/21 12:16:21;;;;;;;54.60;29.80;;;5.80;99.90;;;;;;4968654;28;20241;-88
2022/12/21 12:19:15;;;;;;;58.50;32.55;;;5.70;99.90;;;;;;4964891;29;20201;-89
2022/12/21 12:21:55;;;;;;;41.90;27.05;;;5.90;99.90;;;;;;4965151;29;20214;-87
2022/12/21 12:24:32;;;;;;;40.28;24.95;;;6.00;99.90;;;;;;4963150;29;20210;-87
2022/12/21 12:27:20;;;;;;;44.88;28.60;;;6.30;99.90;;;;;;4959884;28;20218;-87
2022/12/21 12:30:06;;;;;;;49.10;29.48;;;6.20;99.90;;;;;;4968009;28;20214;-87
2022/12/21 12:33:11;;;;;;;32.35;24.50;;;6.00;99.90;;;;;;4965069;28;20210;-88
2022/12/21 12:36:11;;;;;;;41.85;25.30;;;6.00;99.90;;;;;;4962239;29;20211;-88
2022/12/21 12:39:10;;;;;;;40.17;22.92;;;5.90;99.90;;;;;;4962217;28;20230;-88
2022/12/21 12:41:59;;;;;;;54.92;32.42;;;6.20;99.90;;;;;;4981324;28;20254;-88
2022/12/21 12:44:40;;;;;;;74.32;41.45;;;6.00;99.90;;;;;;4968130;29;20194;-87
2022/12/21 12:47:19;;;;;;;40.97;27.10;;;6.00;99.90;;;;;;4959006;29;20207;-89
2022/12/21 12:50:19;;;;;;;45.63;25.98;;;6.00;99.90;;;;;;4962051;28;20199;-86
2022/12/21 12:53:18;;;;;;;35.22;24.02;;;5.80;99.90;;;;;;4952269;28;20289;-87
2022/12/21 12:56:22;;;;;;;34.70;24.25;;;5.50;99.90;;;;;;4961069;29;20246;-88
2022/12/21 12:58:54;;;;;;;52.35;31.75;;;5.80;99.90;;;;;;4959803;28;20213;-88
2022/12/21 13:01:48;;;;;;;36.67;24.50;;;6.00;99.90;;;;;;4969557;29;20279;-88
2022/12/21 13:05:05;;;;;;;47.45;32.80;;;6.20;99.90;;;;;;4972708;29;20418;-88
2022/12/21 13:07:51;;;;;;;50.55;29.08;;;6.10;99.90;;;;;;4970783;28;20735;-87
2022/12/21 13:10:48;;;;;;;39.15;25.65;;;6.20;99.90;;;;;;4965755;28;20619;-87
2022/12/21 13:13:24;;;;;;;40.55;26.77;;;6.10;99.90;;;;;;4945147;28;20266;-86
2022/12/21 13:16:03;;;;;;;47.88;27.60;;;6.10;99.90;;;;;;4966476;28;20238;-87
2022/12/21 13:18:54;;;;;;;51.05;32.50;;;6.20;99.90;;;;;;4969202;29;20233;-88
2022/12/21 13:21:28;;;;;;;41.33;29.30;;;6.20;99.90;;;;;;4968701;28;20207;-86
2022/12/21 13:24:17;;;;;;;48.70;30.70;;;6.30;99.90;;;;;;4961722;29;20218;-89
2022/12/21 13:26:57;;;;;;;51.10;34.78;;;6.40;99.90;;;;;;4962157;28;20259;-86
2022/12/21 13:29:48;;;;;;;43.08;29.17;;;6.30;99.90;;;;;;4980234;28;20230;-86
2022/12/21 13:32:25;;;;;;;41.17;29.13;;;6.40;99.90;;;;;;4979867;28;20228;-86
2022/12/21 13:35:32;;;;;;;40.83;28.13;;;6.20;99.90;;;;;;4960109;29;20254;-88